sensor_id;sensor_type;location;lat;lon;timestamp;pressure;altitude;pressure_sealevel;temperature;humidity
62976;BME280;49071;0.000;0.000;2023-06-01T04:54:09;101068.34;;;22.96;41.72
62976;BME280;49071;0.000;0.000;2023-06-01T04:57:10;101064.63;;;22.99;41.63
62976;BME280;49071;0.000;0.000;2023-06-01T05:00:10;101056.50;;;23.00;42.00
62976;BME280;49071;0.000;0.000;2023-06-01T05:03:12;101064.53;;;23.00;41.57
62976;BME280;49071;0.000;0.000;2023-06-01T05:06:12;101068.03;;;23.01;41.69
62976;BME280;49071;0.000;0.000;2023-06-01T05:09:13;101070.72;;;23.01;41.56
62976;BME280;49071;0.000;0.000;2023-06-01T05:12:13;101060.03;;;23.01;41.64
62976;BME280;49071;0.000;0.000;2023-06-01T05:15:13;101058.22;;;23.01;41.63
62976;BME280;49071;0.000;0.000;2023-06-01T05:18:13;101064.41;;;23.02;41.61
62976;BME280;49071;0.000;0.000;2023-06-01T05:21:14;101065.28;;;23.02;41.56
62976;BME280;49071;0.000;0.000;2023-06-01T05:24:14;101067.94;;;23.02;41.76
62976;BME280;49071;0.000;0.000;2023-06-01T05:27:15;101070.59;;;23.02;41.71
62976;BME280;49071;0.000;0.000;2023-06-01T05:30:15;101065.28;;;23.02;41.83
62976;BME280;49071;0.000;0.000;2023-06-01T05:33:15;101067.84;;;23.04;41.81
62976;BME280;49071;0.000;0.000;2023-06-01T05:36:15;101069.56;;;23.05;41.76
62976;BME280;49071;0.000;0.000;2023-06-01T05:39:15;101070.44;;;23.06;41.68
62976;BME280;49071;0.000;0.000;2023-06-01T05:42:16;101068.72;;;23.05;42.01
62976;BME280;49071;0.000;0.000;2023-06-01T05:45:16;101066.97;;;23.03;41.69
62976;BME280;49071;0.000;0.000;2023-06-01T05:48:16;101070.59;;;23.02;41.57
62976;BME280;49071;0.000;0.000;2023-06-01T05:51:16;101073.28;;;23.02;41.70
62976;BME280;49071;0.000;0.000;2023-06-01T05:54:17;101075.94;;;23.02;41.43
62976;BME280;49071;0.000;0.000;2023-06-01T05:57:17;101079.56;;;23.01;41.25
62976;BME280;49071;0.000;0.000;2023-06-01T06:00:17;101079.69;;;23.00;41.21
62976;BME280;49071;0.000;0.000;2023-06-01T06:03:18;101072.72;;;22.97;41.32
62976;BME280;49071;0.000;0.000;2023-06-01T06:06:18;101070.16;;;22.96;41.16
62976;BME280;49071;0.000;0.000;2023-06-01T06:09:18;101075.38;;;22.97;41.41
62976;BME280;49071;0.000;0.000;2023-06-01T06:12:18;101065.47;;;22.99;41.42
62976;BME280;49071;0.000;0.000;2023-06-01T06:15:18;101060.91;;;23.01;41.18
62976;BME280;49071;0.000;0.000;2023-06-01T06:18:19;101055.56;;;23.01;41.17
62976;BME280;49071;0.000;0.000;2023-06-01T06:21:19;101054.59;;;23.02;41.34
62976;BME280;49071;0.000;0.000;2023-06-01T06:24:19;101054.59;;;23.02;41.23
62976;BME280;49071;0.000;0.000;2023-06-01T06:27:20;101054.59;;;23.02;40.96
62976;BME280;49071;0.000;0.000;2023-06-01T06:30:21;101050.97;;;23.03;41.26
62976;BME280;49071;0.000;0.000;2023-06-01T06:33:21;101053.25;;;23.10;41.11
62976;BME280;49071;0.000;0.000;2023-06-01T06:36:21;101053.81;;;23.15;41.24
62976;BME280;49071;0.000;0.000;2023-06-01T06:39:21;101057.22;;;23.17;41.26
62976;BME280;49071;0.000;0.000;2023-06-01T06:42:22;101060.66;;;23.19;41.44
62976;BME280;49071;0.000;0.000;2023-06-01T06:45:23;101056.94;;;23.21;41.41
62976;BME280;49071;0.000;0.000;2023-06-01T06:48:23;101062.16;;;23.23;41.33
62976;BME280;49071;0.000;0.000;2023-06-01T06:51:23;101058.53;;;23.24;41.61
62976;BME280;49071;0.000;0.000;2023-06-01T06:54:23;101067.31;;;23.26;41.92
62976;BME280;49071;0.000;0.000;2023-06-01T06:57:24;101062.72;;;23.28;41.80
62976;BME280;49071;0.000;0.000;2023-06-01T07:00:24;101067.09;;;23.29;41.56
62976;BME280;49071;0.000;0.000;2023-06-01T07:03:25;101054.50;;;23.31;41.46
62976;BME280;49071;0.000;0.000;2023-06-01T07:06:26;101065.97;;;23.33;41.28
62976;BME280;49071;0.000;0.000;2023-06-01T07:09:26;101065.00;;;23.34;41.95
62976;BME280;49071;0.000;0.000;2023-06-01T07:12:26;101061.38;;;23.35;41.51
62976;BME280;49071;0.000;0.000;2023-06-01T07:15:27;101063.06;;;23.36;41.26
62976;BME280;49071;0.000;0.000;2023-06-01T07:18:27;101061.16;;;23.38;41.90
62976;BME280;49071;0.000;0.000;2023-06-01T07:21:27;101062.84;;;23.39;41.95
62976;BME280;49071;0.000;0.000;2023-06-01T07:24:27;101070.88;;;23.39;41.97
62976;BME280;49071;0.000;0.000;2023-06-01T07:27:27;101058.28;;;23.41;41.40
62976;BME280;49071;0.000;0.000;2023-06-01T07:30:28;101059.03;;;23.43;41.32
62976;BME280;49071;0.000;0.000;2023-06-01T07:33:28;101054.66;;;23.42;41.05
62976;BME280;49071;0.000;0.000;2023-06-01T07:36:28;101049.22;;;23.44;41.36
62976;BME280;49071;0.000;0.000;2023-06-01T07:39:33;101045.47;;;23.46;41.14
62976;BME280;49071;0.000;0.000;2023-06-01T07:42:33;101053.47;;;23.46;41.69
62976;BME280;49071;0.000;0.000;2023-06-01T07:45:33;101037.44;;;23.46;41.24
62976;BME280;49071;0.000;0.000;2023-06-01T07:48:34;101046.34;;;23.47;41.03
62976;BME280;49071;0.000;0.000;2023-06-01T07:51:38;101042.72;;;23.48;40.79
62976;BME280;49071;0.000;0.000;2023-06-01T07:54:38;101044.41;;;23.49;40.89
62976;BME280;49071;0.000;0.000;2023-06-01T07:57:38;101028.41;;;23.49;40.82
62976;BME280;49071;0.000;0.000;2023-06-01T08:00:40;101031.91;;;23.49;41.12
62976;BME280;49071;0.000;0.000;2023-06-01T08:03:43;101031.69;;;23.52;41.52
62976;BME280;49071;0.000;0.000;2023-06-01T08:06:43;101034.28;;;23.54;40.95
62976;BME280;49071;0.000;0.000;2023-06-01T08:09:44;101038.75;;;23.53;41.23
62976;BME280;49071;0.000;0.000;2023-06-01T08:12:44;101041.41;;;23.53;40.73
62976;BME280;49071;0.000;0.000;2023-06-01T08:15:44;101040.38;;;23.56;41.62
62976;BME280;49071;0.000;0.000;2023-06-01T08:18:47;101046.47;;;23.58;41.14
62976;BME280;49071;0.000;0.000;2023-06-01T08:21:47;101028.63;;;23.58;41.04
62976;BME280;49071;0.000;0.000;2023-06-01T08:24:47;101033.00;;;23.60;41.04
62976;BME280;49071;0.000;0.000;2023-06-01T08:27:47;101036.47;;;23.62;41.04
62976;BME280;49071;0.000;0.000;2023-06-01T08:30:48;101033.00;;;23.60;41.46
62976;BME280;49071;0.000;0.000;2023-06-01T08:33:48;101036.47;;;23.62;41.12
62976;BME280;49071;0.000;0.000;2023-06-01T08:36:49;101032.94;;;23.61;41.75
62976;BME280;49071;0.000;0.000;2023-06-01T08:39:49;101036.47;;;23.62;41.63
62976;BME280;49071;0.000;0.000;2023-06-01T08:42:54;101024.94;;;23.61;41.53
62976;BME280;49071;0.000;0.000;2023-06-01T08:45:57;101032.00;;;23.62;41.39
62976;BME280;49071;0.000;0.000;2023-06-01T08:48:58;101031.13;;;23.62;41.43
62976;BME280;49071;0.000;0.000;2023-06-01T08:51:59;101035.50;;;23.63;41.81
62976;BME280;49071;0.000;0.000;2023-06-01T08:55:00;101031.88;;;23.64;41.58
62976;BME280;49071;0.000;0.000;2023-06-01T08:58:01;101033.69;;;23.63;41.75
62976;BME280;49071;0.000;0.000;2023-06-01T09:01:02;101029.22;;;23.64;41.38
62976;BME280;49071;0.000;0.000;2023-06-01T09:04:02;101033.59;;;23.65;41.78
62976;BME280;49071;0.000;0.000;2023-06-01T09:07:03;101023.75;;;23.65;41.70
62976;BME280;49071;0.000;0.000;2023-06-01T09:10:03;101028.13;;;23.66;41.37
62976;BME280;49071;0.000;0.000;2023-06-01T09:13:04;101017.44;;;23.66;41.41
62976;BME280;49071;0.000;0.000;2023-06-01T09:16:05;101023.63;;;23.67;41.13
62976;BME280;49071;0.000;0.000;2023-06-01T09:19:06;101027.16;;;23.67;41.09
62976;BME280;49071;0.000;0.000;2023-06-01T09:22:10;101020.00;;;23.68;41.15
62976;BME280;49071;0.000;0.000;2023-06-01T09:25:12;101028.00;;;23.68;41.27
62976;BME280;49071;0.000;0.000;2023-06-01T09:28:13;101017.34;;;23.68;41.73
62976;BME280;49071;0.000;0.000;2023-06-01T09:31:25;101017.34;;;23.68;41.86
62976;BME280;49071;0.000;0.000;2023-06-01T09:34:34;101020.00;;;23.68;41.96
62976;BME280;49071;0.000;0.000;2023-06-01T09:37:53;101014.59;;;23.69;41.86
62976;BME280;49071;0.000;0.000;2023-06-01T09:40:55;101019.06;;;23.69;41.78
62976;BME280;49071;0.000;0.000;2023-06-01T09:43:55;101016.41;;;23.69;41.57
62976;BME280;49071;0.000;0.000;2023-06-01T09:46:57;101014.59;;;23.69;41.26
62976;BME280;49071;0.000;0.000;2023-06-01T09:49:57;101005.59;;;23.70;41.62
62976;BME280;49071;0.000;0.000;2023-06-01T09:53:03;101003.88;;;23.69;41.51
62976;BME280;49071;0.000;0.000;2023-06-01T09:56:04;100996.72;;;23.70;41.43
62976;BME280;49071;0.000;0.000;2023-06-01T09:59:04;100992.25;;;23.70;41.37
62976;BME280;49071;0.000;0.000;2023-06-01T10:02:04;100988.72;;;23.70;41.34
62976;BME280;49071;0.000;0.000;2023-06-01T10:05:06;100988.81;;;23.68;41.49
62976;BME280;49071;0.000;0.000;2023-06-01T10:08:07;100990.53;;;23.69;41.67
62976;BME280;49071;0.000;0.000;2023-06-01T10:11:08;100979.72;;;23.71;42.04
62976;BME280;49071;0.000;0.000;2023-06-01T10:14:09;100986.91;;;23.70;41.74
62976;BME280;49071;0.000;0.000;2023-06-01T10:17:10;100982.41;;;23.71;41.57
62976;BME280;49071;0.000;0.000;2023-06-01T10:20:13;100976.22;;;23.70;41.90
62976;BME280;49071;0.000;0.000;2023-06-01T10:23:13;100975.34;;;23.70;41.77
62976;BME280;49071;0.000;0.000;2023-06-01T10:26:14;100972.69;;;23.70;41.71
62976;BME280;49071;0.000;0.000;2023-06-01T10:29:17;100970.00;;;23.70;41.66
62976;BME280;49071;0.000;0.000;2023-06-01T10:33:03;100970.00;;;23.70;41.90
62976;BME280;49071;0.000;0.000;2023-06-01T10:38:41;100962.97;;;23.69;41.95
62976;BME280;49071;0.000;0.000;2023-06-01T10:41:41;100968.31;;;23.69;42.15
62976;BME280;49071;0.000;0.000;2023-06-01T10:50:42;100962.09;;;23.68;42.26
62976;BME280;49071;0.000;0.000;2023-06-01T10:53:42;100963.91;;;23.68;41.99
62976;BME280;49071;0.000;0.000;2023-06-01T10:56:42;100950.53;;;23.68;42.18
62976;BME280;49071;0.000;0.000;2023-06-01T10:59:42;100961.22;;;23.68;42.42
62976;BME280;49071;0.000;0.000;2023-06-01T11:02:50;100949.69;;;23.67;42.00
62976;BME280;49071;0.000;0.000;2023-06-01T11:05:51;100955.13;;;23.66;42.13
62976;BME280;49071;0.000;0.000;2023-06-01T11:08:52;100953.31;;;23.66;42.06
62976;BME280;49071;0.000;0.000;2023-06-01T11:15:08;100951.50;;;23.67;42.15
62976;BME280;49071;0.000;0.000;2023-06-01T11:21:34;100941.78;;;23.66;41.91
62976;BME280;49071;0.000;0.000;2023-06-01T11:24:37;100940.06;;;23.65;42.13
62976;BME280;49071;0.000;0.000;2023-06-01T11:27:41;100933.88;;;23.64;42.27
62976;BME280;49071;0.000;0.000;2023-06-01T11:30:42;100928.66;;;23.63;42.31
62976;BME280;49071;0.000;0.000;2023-06-01T11:33:49;100928.66;;;23.63;41.95
62976;BME280;49071;0.000;0.000;2023-06-01T11:36:53;100922.47;;;23.62;41.88
62976;BME280;49071;0.000;0.000;2023-06-01T11:40:04;100922.47;;;23.62;42.29
62976;BME280;49071;0.000;0.000;2023-06-01T11:43:05;100926.09;;;23.61;42.25
62976;BME280;49071;0.000;0.000;2023-06-01T11:46:06;100918.06;;;23.61;42.34
62976;BME280;49071;0.000;0.000;2023-06-01T11:49:06;100925.22;;;23.61;42.21
62976;BME280;49071;0.000;0.000;2023-06-01T11:52:08;100917.19;;;23.61;42.02
62976;BME280;49071;0.000;0.000;2023-06-01T11:55:09;100925.22;;;23.61;41.86
62976;BME280;49071;0.000;0.000;2023-06-01T11:58:09;100918.13;;;23.60;42.33
62976;BME280;49071;0.000;0.000;2023-06-01T12:01:09;100915.44;;;23.60;41.89
62976;BME280;49071;0.000;0.000;2023-06-01T12:04:13;100914.59;;;23.59;42.05
62976;BME280;49071;0.000;0.000;2023-06-01T12:07:14;100906.50;;;23.61;41.96
62976;BME280;49071;0.000;0.000;2023-06-01T12:10:15;100911.84;;;23.61;42.04
62976;BME280;49071;0.000;0.000;2023-06-01T12:13:17;100901.16;;;23.61;41.90
62976;BME280;49071;0.000;0.000;2023-06-01T12:16:17;100896.75;;;23.60;42.37
62976;BME280;49071;0.000;0.000;2023-06-01T12:19:18;100892.38;;;23.58;41.86
62976;BME280;49071;0.000;0.000;2023-06-01T12:22:18;100897.72;;;23.58;41.96
62976;BME280;49071;0.000;0.000;2023-06-01T12:25:18;100894.09;;;23.60;42.46
62976;BME280;49071;0.000;0.000;2023-06-01T12:28:19;100891.41;;;23.60;42.29
62976;BME280;49071;0.000;0.000;2023-06-01T12:31:19;100896.75;;;23.60;42.42
62976;BME280;49071;0.000;0.000;2023-06-01T12:34:20;100883.50;;;23.58;42.35
62976;BME280;49071;0.000;0.000;2023-06-01T12:37:20;100884.47;;;23.57;42.26
62976;BME280;49071;0.000;0.000;2023-06-01T12:40:23;100886.19;;;23.58;42.14
62976;BME280;49071;0.000;0.000;2023-06-01T12:43:23;100878.28;;;23.56;42.41
62976;BME280;49071;0.000;0.000;2023-06-01T12:46:25;100883.63;;;23.56;42.19
62976;BME280;49071;0.000;0.000;2023-06-01T12:49:26;100876.56;;;23.55;42.49
62976;BME280;49071;0.000;0.000;2023-06-01T12:52:26;100865.91;;;23.55;42.06
62976;BME280;49071;0.000;0.000;2023-06-01T12:55:26;100872.19;;;23.54;42.24
62976;BME280;49071;0.000;0.000;2023-06-01T12:58:27;100864.19;;;23.54;42.35
62976;BME280;49071;0.000;0.000;2023-06-01T13:01:28;100864.28;;;23.53;43.00
62976;BME280;49071;0.000;0.000;2023-06-01T13:04:28;100863.34;;;23.54;42.58
62976;BME280;49071;0.000;0.000;2023-06-01T13:07:29;100865.03;;;23.55;42.35
62976;BME280;49071;0.000;0.000;2023-06-01T13:10:29;100864.94;;;23.56;42.34
62976;BME280;49071;0.000;0.000;2023-06-01T13:13:30;100863.97;;;23.57;42.14
62976;BME280;49071;0.000;0.000;2023-06-01T13:16:30;100864.06;;;23.56;42.67
62976;BME280;49071;0.000;0.000;2023-06-01T13:19:30;100850.84;;;23.54;42.79
62976;BME280;49071;0.000;0.000;2023-06-01T13:22:30;100850.84;;;23.54;42.45
62976;BME280;49071;0.000;0.000;2023-06-01T13:25:31;100854.44;;;23.53;42.55
62976;BME280;49071;0.000;0.000;2023-06-01T13:28:31;100853.50;;;23.54;43.01
62976;BME280;49071;0.000;0.000;2023-06-01T13:31:32;100851.75;;;23.53;43.22
62976;BME280;49071;0.000;0.000;2023-06-01T13:34:33;100857.09;;;23.53;42.33
62976;BME280;49071;0.000;0.000;2023-06-01T13:37:33;100851.75;;;23.53;42.54
62976;BME280;49071;0.000;0.000;2023-06-01T13:40:36;100854.56;;;23.52;43.07
62976;BME280;49071;0.000;0.000;2023-06-01T13:43:36;100839.38;;;23.52;42.35
62976;BME280;49071;0.000;0.000;2023-06-01T13:46:37;100845.56;;;23.53;42.72
62976;BME280;49071;0.000;0.000;2023-06-01T13:49:38;100847.41;;;23.52;42.50
62976;BME280;49071;0.000;0.000;2023-06-01T13:52:41;100836.72;;;23.52;42.59
62976;BME280;49071;0.000;0.000;2023-06-01T13:55:41;100851.88;;;23.52;42.77
62976;BME280;49071;0.000;0.000;2023-06-01T13:58:42;100841.19;;;23.52;42.66
62976;BME280;49071;0.000;0.000;2023-06-01T14:01:42;100839.38;;;23.52;43.03
62976;BME280;49071;0.000;0.000;2023-06-01T14:04:43;100843.03;;;23.51;42.52
62976;BME280;49071;0.000;0.000;2023-06-01T14:07:43;100843.03;;;23.51;42.52
62976;BME280;49071;0.000;0.000;2023-06-01T14:10:45;100832.34;;;23.51;42.76
62976;BME280;49071;0.000;0.000;2023-06-01T14:13:45;100832.34;;;23.51;42.52
62976;BME280;49071;0.000;0.000;2023-06-01T14:16:45;100826.13;;;23.51;42.66
62976;BME280;49071;0.000;0.000;2023-06-01T14:19:46;100829.66;;;23.51;42.77
62976;BME280;49071;0.000;0.000;2023-06-01T14:22:46;100820.78;;;23.51;42.72
62976;BME280;49071;0.000;0.000;2023-06-01T14:25:46;100816.31;;;23.51;42.39
62976;BME280;49071;0.000;0.000;2023-06-01T14:28:46;100820.91;;;23.49;42.63
62976;BME280;49071;0.000;0.000;2023-06-01T14:31:46;100815.44;;;23.51;42.64
62976;BME280;49071;0.000;0.000;2023-06-01T14:34:47;100814.50;;;23.52;42.62
62976;BME280;49071;0.000;0.000;2023-06-01T14:37:47;100810.97;;;23.51;42.68
62976;BME280;49071;0.000;0.000;2023-06-01T14:40:47;100815.44;;;23.51;42.68
62976;BME280;49071;0.000;0.000;2023-06-01T14:43:48;100806.59;;;23.50;42.82
62976;BME280;49071;0.000;0.000;2023-06-01T14:46:48;100819.09;;;23.50;42.59
62976;BME280;49071;0.000;0.000;2023-06-01T14:49:48;100809.16;;;23.52;42.59
62976;BME280;49071;0.000;0.000;2023-06-01T14:52:48;100813.63;;;23.51;42.41
62976;BME280;49071;0.000;0.000;2023-06-01T14:55:48;100814.50;;;23.52;42.65
62976;BME280;49071;0.000;0.000;2023-06-01T14:58:49;100813.63;;;23.51;42.66
62976;BME280;49071;0.000;0.000;2023-06-01T15:01:49;100812.78;;;23.51;42.70
62976;BME280;49071;0.000;0.000;2023-06-01T15:04:49;100811.94;;;23.50;42.53
62976;BME280;49071;0.000;0.000;2023-06-01T15:07:51;100803.91;;;23.50;42.55
62976;BME280;49071;0.000;0.000;2023-06-01T15:10:51;100804.78;;;23.51;42.64
62976;BME280;49071;0.000;0.000;2023-06-01T15:13:53;100808.28;;;23.51;42.85
62976;BME280;49071;0.000;0.000;2023-06-01T15:16:53;100807.44;;;23.51;42.71
62976;BME280;49071;0.000;0.000;2023-06-01T15:19:53;100803.91;;;23.50;42.76
62976;BME280;49071;0.000;0.000;2023-06-01T15:22:53;100795.91;;;23.50;42.68
62976;BME280;49071;0.000;0.000;2023-06-01T15:25:55;100793.25;;;23.50;42.91
62976;BME280;49071;0.000;0.000;2023-06-01T15:28:55;100791.41;;;23.51;42.68
62976;BME280;49071;0.000;0.000;2023-06-01T15:31:55;100789.59;;;23.51;42.92
62976;BME280;49071;0.000;0.000;2023-06-01T15:34:55;100790.44;;;23.52;42.82
62976;BME280;49071;0.000;0.000;2023-06-01T15:37:55;100777.09;;;23.52;42.57
62976;BME280;49071;0.000;0.000;2023-06-01T15:40:56;100783.28;;;23.52;43.13
62976;BME280;49071;0.000;0.000;2023-06-01T15:43:56;100781.59;;;23.51;43.18
62976;BME280;49071;0.000;0.000;2023-06-01T15:46:56;100776.25;;;23.51;43.48
62976;BME280;49071;0.000;0.000;2023-06-01T15:49:56;100774.53;;;23.50;43.21
62976;BME280;49071;0.000;0.000;2023-06-01T15:52:56;100779.03;;;23.50;43.05
62976;BME280;49071;0.000;0.000;2023-06-01T15:55:57;100775.50;;;23.49;43.15
62976;BME280;49071;0.000;0.000;2023-06-01T15:58:57;100768.47;;;23.48;43.31
62976;BME280;49071;0.000;0.000;2023-06-01T16:01:57;100768.47;;;23.48;43.00
62976;BME280;49071;0.000;0.000;2023-06-01T16:04:57;100771.88;;;23.50;43.31
62976;BME280;49071;0.000;0.000;2023-06-01T16:07:57;100771.88;;;23.50;43.22
62976;BME280;49071;0.000;0.000;2023-06-01T16:10:58;100764.81;;;23.49;43.29
62976;BME280;49071;0.000;0.000;2023-06-01T16:13:58;100763.13;;;23.48;43.25
62976;BME280;49071;0.000;0.000;2023-06-01T16:16:58;100761.31;;;23.49;43.30
62976;BME280;49071;0.000;0.000;2023-06-01T16:19:58;100764.81;;;23.49;43.40
62976;BME280;49071;0.000;0.000;2023-06-01T16:23:00;100756.69;;;23.51;43.11
62976;BME280;49071;0.000;0.000;2023-06-01T16:26:00;100754.03;;;23.51;43.20
62976;BME280;49071;0.000;0.000;2023-06-01T16:29:00;100754.88;;;23.51;43.35
62976;BME280;49071;0.000;0.000;2023-06-01T16:32:00;100753.91;;;23.52;43.32
62976;BME280;49071;0.000;0.000;2023-06-01T16:35:01;100750.25;;;23.53;43.28
62976;BME280;49071;0.000;0.000;2023-06-01T16:38:01;100752.94;;;23.53;43.50
62976;BME280;49071;0.000;0.000;2023-06-01T16:41:01;100748.56;;;23.52;43.37
62976;BME280;49071;0.000;0.000;2023-06-01T16:44:03;100750.25;;;23.53;43.74
62976;BME280;49071;0.000;0.000;2023-06-01T16:47:04;100748.47;;;23.54;43.58
62976;BME280;49071;0.000;0.000;2023-06-01T16:50:04;100748.56;;;23.52;43.46
62976;BME280;49071;0.000;0.000;2023-06-01T16:53:04;100738.72;;;23.53;43.76
62976;BME280;49071;0.000;0.000;2023-06-01T16:56:05;100737.88;;;23.52;43.53
62976;BME280;49071;0.000;0.000;2023-06-01T16:59:06;100748.56;;;23.52;43.74
62976;BME280;49071;0.000;0.000;2023-06-01T17:02:06;100741.53;;;23.51;43.38
62976;BME280;49071;0.000;0.000;2023-06-01T17:05:06;100739.69;;;23.52;43.54
62976;BME280;49071;0.000;0.000;2023-06-01T17:08:07;100742.38;;;23.52;43.54
62976;BME280;49071;0.000;0.000;2023-06-01T17:11:07;100731.81;;;23.50;43.51
62976;BME280;49071;0.000;0.000;2023-06-01T17:14:07;100731.81;;;23.50;43.69
62976;BME280;49071;0.000;0.000;2023-06-01T17:17:08;100733.50;;;23.51;43.79
62976;BME280;49071;0.000;0.000;2023-06-01T17:20:08;100730.84;;;23.51;43.56
62976;BME280;49071;0.000;0.000;2023-06-01T17:23:08;100730.84;;;23.51;43.39
62976;BME280;49071;0.000;0.000;2023-06-01T17:26:09;100728.16;;;23.51;43.14
62976;BME280;49071;0.000;0.000;2023-06-01T17:29:09;100735.22;;;23.52;43.14
62976;BME280;49071;0.000;0.000;2023-06-01T17:32:09;100732.66;;;23.51;42.99
62976;BME280;49071;0.000;0.000;2023-06-01T17:35:09;100733.50;;;23.51;42.74
62976;BME280;49071;0.000;0.000;2023-06-01T17:38:10;100729.13;;;23.50;42.96
62976;BME280;49071;0.000;0.000;2023-06-01T17:41:10;100725.50;;;23.51;43.00
62976;BME280;49071;0.000;0.000;2023-06-01T17:44:11;100724.75;;;23.49;42.60
62976;BME280;49071;0.000;0.000;2023-06-01T17:47:11;100727.44;;;23.49;42.37
62976;BME280;49071;0.000;0.000;2023-06-01T17:50:11;100731.91;;;23.49;42.30
62976;BME280;49071;0.000;0.000;2023-06-01T17:53:11;100731.06;;;23.48;42.13
62976;BME280;49071;0.000;0.000;2023-06-01T17:56:12;100728.41;;;23.48;42.05
62976;BME280;49071;0.000;0.000;2023-06-01T17:59:12;100724.03;;;23.47;42.08
62976;BME280;49071;0.000;0.000;2023-06-01T18:02:14;100725.72;;;23.48;42.27
62976;BME280;49071;0.000;0.000;2023-06-01T18:05:14;100732.03;;;23.47;42.33
62976;BME280;49071;0.000;0.000;2023-06-01T18:08:14;100727.53;;;23.48;42.34
62976;BME280;49071;0.000;0.000;2023-06-01T18:11:15;100724.75;;;23.49;42.37
62976;BME280;49071;0.000;0.000;2023-06-01T18:14:15;100726.47;;;23.50;42.38
62976;BME280;49071;0.000;0.000;2023-06-01T18:17:17;100723.78;;;23.50;42.33
62976;BME280;49071;0.000;0.000;2023-06-01T18:20:17;100715.91;;;23.49;42.36
62976;BME280;49071;0.000;0.000;2023-06-01T18:23:17;100716.75;;;23.49;42.33
62976;BME280;49071;0.000;0.000;2023-06-01T18:26:17;100723.78;;;23.50;42.32
62976;BME280;49071;0.000;0.000;2023-06-01T18:29:17;100724.63;;;23.51;42.13
62976;BME280;49071;0.000;0.000;2023-06-01T18:32:18;100717.47;;;23.51;42.11
62976;BME280;49071;0.000;0.000;2023-06-01T18:35:18;100727.31;;;23.51;42.35
62976;BME280;49071;0.000;0.000;2023-06-01T18:38:19;100738.84;;;23.51;42.11
62976;BME280;49071;0.000;0.000;2023-06-01T18:41:20;100746.00;;;23.51;42.06
62976;BME280;49071;0.000;0.000;2023-06-01T18:44:21;100748.78;;;23.49;41.85
62976;BME280;49071;0.000;0.000;2023-06-01T18:47:21;100748.78;;;23.49;41.86
62976;BME280;49071;0.000;0.000;2023-06-01T18:50:21;100748.69;;;23.51;42.08
62976;BME280;49071;0.000;0.000;2023-06-01T18:53:23;100758.41;;;23.52;42.01
62976;BME280;49071;0.000;0.000;2023-06-01T18:56:23;100761.91;;;23.52;42.08
62976;BME280;49071;0.000;0.000;2023-06-01T18:59:23;100769.94;;;23.52;42.12
62976;BME280;49071;0.000;0.000;2023-06-01T19:02:24;100774.31;;;23.53;42.06
62976;BME280;49071;0.000;0.000;2023-06-01T19:05:24;100784.06;;;23.54;42.07
62976;BME280;49071;0.000;0.000;2023-06-01T19:08:24;100784.06;;;23.54;42.04
62976;BME280;49071;0.000;0.000;2023-06-01T19:11:29;100783.19;;;23.54;42.51
62976;BME280;49071;0.000;0.000;2023-06-01T19:14:29;100783.19;;;23.54;42.33
62976;BME280;49071;0.000;0.000;2023-06-01T19:17:30;100789.41;;;23.54;42.44
62976;BME280;49071;0.000;0.000;2023-06-01T19:20:45;100783.09;;;23.55;42.42
62976;BME280;49071;0.000;0.000;2023-06-01T19:23:50;100793.78;;;23.55;42.22
62976;BME280;49071;0.000;0.000;2023-06-01T19:26:51;100799.13;;;23.55;42.47
62976;BME280;49071;0.000;0.000;2023-06-01T19:29:54;100802.63;;;23.56;42.49
62976;BME280;49071;0.000;0.000;2023-06-01T19:32:55;100795.59;;;23.55;42.54
62976;BME280;49071;0.000;0.000;2023-06-01T19:35:56;100800.81;;;23.56;42.59
62976;BME280;49071;0.000;0.000;2023-06-01T19:38:56;100807.00;;;23.57;42.51
62976;BME280;49071;0.000;0.000;2023-06-01T19:45:00;100797.50;;;23.53;42.48
62976;BME280;49071;0.000;0.000;2023-06-01T19:48:00;100800.50;;;23.48;41.92
62976;BME280;49071;0.000;0.000;2023-06-01T19:51:00;100808.63;;;23.47;41.89
62976;BME280;49071;0.000;0.000;2023-06-01T19:54:01;100806.81;;;23.47;41.84
62976;BME280;49071;0.000;0.000;2023-06-01T19:57:02;100802.34;;;23.48;42.42
62976;BME280;49071;0.000;0.000;2023-06-01T20:00:03;100804.78;;;23.51;42.09
62976;BME280;49071;0.000;0.000;2023-06-01T20:03:05;100806.47;;;23.52;41.99
62976;BME280;49071;0.000;0.000;2023-06-01T20:06:08;100800.28;;;23.51;42.52
62976;BME280;49071;0.000;0.000;2023-06-01T20:09:12;100812.59;;;23.54;42.53
62976;BME280;49071;0.000;0.000;2023-06-01T20:12:14;100814.38;;;23.53;42.61
62976;BME280;49071;0.000;0.000;2023-06-01T20:15:16;100814.28;;;23.55;42.21
